createdAt,value
2018-12-15T00:02:27.214Z,-0.80
2018-12-15T00:04:55.733Z,-0.80
2018-12-15T00:07:24.201Z,-0.90
2018-12-15T00:09:52.627Z,-0.90
2018-12-15T00:12:21.023Z,-0.90
2018-12-15T00:14:49.391Z,-0.80
2018-12-15T00:17:17.806Z,-0.90
2018-12-15T00:19:46.213Z,-0.90
2018-12-15T00:22:14.607Z,-0.90
2018-12-15T00:24:43.077Z,-0.90
2018-12-15T00:27:11.503Z,-0.90
2018-12-15T00:29:39.901Z,-1.00
2018-12-15T00:32:08.289Z,-1.00
2018-12-15T00:34:36.694Z,-1.00
2018-12-15T00:37:05.085Z,-1.00
2018-12-15T00:39:33.629Z,-1.00
2018-12-15T00:42:02.059Z,-1.00
2018-12-15T00:44:30.405Z,-1.00
2018-12-15T00:46:58.827Z,-1.00
2018-12-15T00:49:27.217Z,-1.10
2018-12-15T00:51:55.608Z,-1.00
2018-12-15T00:54:23.991Z,-1.00
2018-12-15T00:56:52.433Z,-1.00
2018-12-15T00:59:20.878Z,-0.90
2018-12-15T01:01:49.330Z,-0.90
2018-12-15T01:04:17.770Z,-0.90
2018-12-15T01:06:46.244Z,-0.90
2018-12-15T01:09:14.734Z,-0.90
2018-12-15T01:11:43.116Z,-0.90
2018-12-15T01:14:11.544Z,-1.00
2018-12-15T01:16:39.966Z,-1.00
2018-12-15T01:19:08.360Z,-1.00
2018-12-15T01:21:36.727Z,-1.00
2018-12-15T01:24:05.173Z,-1.00
2018-12-15T01:26:33.597Z,-1.10
2018-12-15T01:29:02.075Z,-1.10
2018-12-15T01:31:30.440Z,-1.10
2018-12-15T01:33:58.910Z,-1.10
2018-12-15T01:36:27.399Z,-1.10
2018-12-15T01:38:55.860Z,-1.10
2018-12-15T01:41:25.395Z,-1.10
2018-12-15T01:43:53.833Z,-1.10
2018-12-15T01:46:22.495Z,-1.10
2018-12-15T01:48:50.852Z,-1.10
2018-12-15T01:51:19.270Z,-1.10
2018-12-15T01:53:47.678Z,-1.10
2018-12-15T01:56:16.065Z,-1.10
2018-12-15T01:58:44.444Z,-1.10
2018-12-15T02:01:12.809Z,-1.10
2018-12-15T02:03:41.251Z,-1.10
2018-12-15T02:06:09.644Z,-1.10
2018-12-15T02:08:38.033Z,-1.10
2018-12-15T02:11:06.448Z,-1.20
2018-12-15T02:13:34.860Z,-1.10
2018-12-15T02:16:03.679Z,-1.10
2018-12-15T02:18:32.123Z,-1.10
2018-12-15T02:21:00.969Z,-1.10
2018-12-15T02:23:29.379Z,-1.10
2018-12-15T02:25:57.782Z,-1.10
2018-12-15T02:28:26.312Z,-1.10
2018-12-15T02:30:54.717Z,-1.10
2018-12-15T02:33:23.077Z,-1.10
2018-12-15T02:35:51.438Z,-1.10
2018-12-15T02:38:19.798Z,-1.10
2018-12-15T02:40:48.246Z,-1.10
2018-12-15T02:43:16.639Z,-1.10
2018-12-15T02:45:45.147Z,-1.10
2018-12-15T02:48:13.605Z,-1.20
2018-12-15T02:50:42.098Z,-1.10
2018-12-15T02:53:10.591Z,-1.10
2018-12-15T02:55:39.243Z,-1.20
2018-12-15T02:58:07.731Z,-1.10
2018-12-15T03:00:36.165Z,-1.10
2018-12-15T03:03:05.524Z,-1.10
2018-12-15T03:05:33.882Z,-1.00
2018-12-15T03:08:02.286Z,-1.10
2018-12-15T03:10:30.703Z,-1.10
2018-12-15T03:12:59.132Z,-1.10
2018-12-15T03:15:27.470Z,-1.10
2018-12-15T03:17:55.889Z,-1.10
2018-12-15T03:20:24.282Z,-1.10
2018-12-15T03:22:52.679Z,-1.00
2018-12-15T03:25:21.172Z,-1.10
2018-12-15T03:27:49.538Z,-1.10
2018-12-15T03:30:17.920Z,-1.10
2018-12-15T03:32:46.455Z,-1.10
2018-12-15T03:35:15.162Z,-1.10
2018-12-15T03:37:43.570Z,-1.10
2018-12-15T03:40:11.990Z,-1.10
2018-12-15T03:42:40.500Z,-1.10
2018-12-15T03:45:09.078Z,-1.20
2018-12-15T03:47:37.446Z,-1.20
2018-12-15T03:50:06.928Z,-1.20
2018-12-15T03:52:35.321Z,-1.10
2018-12-15T03:55:03.721Z,-1.20
2018-12-15T03:57:32.111Z,-1.20
2018-12-15T04:00:00.466Z,-1.20
2018-12-15T04:02:28.915Z,-1.20
2018-12-15T04:04:57.497Z,-1.10
2018-12-15T04:07:25.887Z,-1.10
2018-12-15T04:09:54.382Z,-1.10
2018-12-15T04:12:22.802Z,-1.20
2018-12-15T04:14:51.303Z,-1.20
2018-12-15T04:17:19.791Z,-1.20
2018-12-15T04:19:48.289Z,-1.10
2018-12-15T04:22:20.568Z,-1.10
2018-12-15T04:24:48.988Z,-1.20
2018-12-15T04:27:17.441Z,-1.10
2018-12-15T04:29:45.889Z,-1.10
2018-12-15T04:32:14.399Z,-1.20
2018-12-15T04:34:42.752Z,-1.10
2018-12-15T04:37:11.127Z,-1.10
2018-12-15T04:39:39.510Z,-1.20
2018-12-15T04:42:07.872Z,-1.20
2018-12-15T04:44:36.321Z,-1.20
2018-12-15T04:47:04.796Z,-1.20
2018-12-15T04:49:33.194Z,-1.20
2018-12-15T04:52:01.616Z,-1.20
2018-12-15T04:54:30.058Z,-1.20
2018-12-15T04:56:58.457Z,-1.20
2018-12-15T04:59:26.866Z,-1.10
2018-12-15T05:01:55.302Z,-1.10
2018-12-15T05:04:23.683Z,-1.10
2018-12-15T05:06:52.162Z,-1.20
2018-12-15T05:09:20.627Z,-1.20
2018-12-15T05:11:49.073Z,-1.20
2018-12-15T05:14:17.507Z,-1.20
2018-12-15T05:16:45.873Z,-1.20
2018-12-15T05:19:14.247Z,-1.20
2018-12-15T05:21:42.650Z,-1.20
2018-12-15T05:24:11.061Z,-1.20
2018-12-15T05:26:39.523Z,-1.20
2018-12-15T05:29:07.927Z,-1.20
2018-12-15T05:31:36.380Z,-1.20
2018-12-15T05:34:04.787Z,-1.20
2018-12-15T05:36:33.188Z,-1.10
2018-12-15T05:39:01.609Z,-1.10
2018-12-15T05:41:30.001Z,-1.10
2018-12-15T05:43:58.400Z,-1.10
2018-12-15T05:46:26.816Z,-1.20
2018-12-15T05:48:55.213Z,-1.20
2018-12-15T05:51:23.653Z,-1.20
2018-12-15T05:53:52.133Z,-1.10
2018-12-15T05:56:20.517Z,-1.10
2018-12-15T05:58:48.873Z,-1.20
2018-12-15T06:01:17.297Z,-1.20
2018-12-15T06:03:45.677Z,-1.20
2018-12-15T06:06:14.089Z,-1.10
2018-12-15T06:08:42.483Z,-1.10
2018-12-15T06:11:10.915Z,-1.10
2018-12-15T06:13:39.355Z,-1.10
2018-12-15T06:16:07.858Z,-1.20
2018-12-15T06:18:36.244Z,-1.20
2018-12-15T06:21:04.641Z,-1.20
2018-12-15T06:23:33.466Z,-1.20
2018-12-15T06:26:01.987Z,-1.20
2018-12-15T06:28:30.484Z,-1.20
2018-12-15T06:30:59.023Z,-1.20
2018-12-15T06:33:27.427Z,-1.20
2018-12-15T06:35:55.795Z,-1.20
2018-12-15T06:38:25.083Z,-1.20
2018-12-15T06:40:53.485Z,-1.20
2018-12-15T06:43:22.225Z,-1.20
2018-12-15T06:45:50.941Z,-1.00
2018-12-15T06:48:19.339Z,-1.10
2018-12-15T06:50:47.772Z,-1.10
2018-12-15T06:53:16.174Z,-1.00
2018-12-15T06:55:44.639Z,-1.10
2018-12-15T06:58:13.095Z,-1.10
2018-12-15T07:00:41.469Z,-1.10
2018-12-15T07:03:09.871Z,-1.10
2018-12-15T07:05:38.323Z,-1.10
2018-12-15T07:08:06.775Z,-1.10
2018-12-15T07:10:35.235Z,-1.20
2018-12-15T07:13:03.611Z,-1.20
2018-12-15T07:15:32.041Z,-1.20
2018-12-15T07:18:00.391Z,-1.20
2018-12-15T07:20:28.767Z,-1.20
2018-12-15T07:22:57.189Z,-1.20
2018-12-15T07:25:25.615Z,-1.10
2018-12-15T07:27:54.057Z,-1.10
2018-12-15T07:30:22.816Z,-1.10
2018-12-15T07:32:51.214Z,-1.10
2018-12-15T07:35:19.691Z,-1.10
2018-12-15T07:37:48.129Z,-1.10
2018-12-15T07:40:16.526Z,-1.10
2018-12-15T07:42:44.918Z,-1.10
2018-12-15T07:45:13.628Z,-1.20
2018-12-15T07:47:42.048Z,-1.10
2018-12-15T07:50:10.440Z,-1.10
2018-12-15T07:52:38.965Z,-1.10
2018-12-15T07:55:07.878Z,-1.00
2018-12-15T07:57:36.413Z,-1.10
2018-12-15T08:00:06.257Z,-1.20
2018-12-15T08:02:34.686Z,-1.10
2018-12-15T08:05:03.141Z,-1.20
2018-12-15T08:07:31.600Z,-1.10
2018-12-15T08:10:04.548Z,-1.10
2018-12-15T08:12:39.667Z,-1.10
2018-12-15T08:15:09.217Z,-1.10
2018-12-15T08:17:37.641Z,-1.10
2018-12-15T08:20:08.746Z,-1.00
2018-12-15T08:22:37.299Z,-1.00
2018-12-15T08:25:06.842Z,-1.10
2018-12-15T08:27:35.251Z,-1.00
2018-12-15T08:30:04.586Z,-1.00
2018-12-15T08:32:33.125Z,-1.00
2018-12-15T08:35:01.674Z,-1.10
2018-12-15T08:37:30.064Z,-1.10
2018-12-15T08:39:58.520Z,-1.10
2018-12-15T08:42:26.915Z,-1.10
2018-12-15T08:44:55.354Z,-1.10
2018-12-15T08:47:23.742Z,-1.10
2018-12-15T08:49:52.151Z,-1.00
2018-12-15T08:52:20.591Z,-1.00
2018-12-15T08:54:49.047Z,-1.00
2018-12-15T08:57:22.762Z,-1.00
2018-12-15T08:59:51.101Z,-0.90
2018-12-15T09:02:19.605Z,-0.90
2018-12-15T09:04:47.964Z,-0.90
2018-12-15T09:07:16.640Z,-0.90
2018-12-15T09:09:45.321Z,-0.80
2018-12-15T09:12:13.813Z,-0.80
2018-12-15T09:14:42.250Z,-0.70
2018-12-15T09:17:10.622Z,-0.70
2018-12-15T09:19:39.240Z,-0.70
2018-12-15T09:22:11.541Z,-0.70
2018-12-15T09:24:38.307Z,-0.80
2018-12-15T09:27:07.730Z,-0.60
2018-12-15T09:29:36.182Z,-0.60
2018-12-15T09:32:04.605Z,-0.60
2018-12-15T09:34:33.087Z,-0.60
2018-12-15T09:37:01.465Z,-0.60
2018-12-15T09:39:29.841Z,-0.60
2018-12-15T09:41:58.341Z,-0.60
2018-12-15T09:44:26.759Z,-0.60
2018-12-15T09:46:55.144Z,-0.70
2018-12-15T09:49:23.546Z,-0.60
2018-12-15T09:51:51.943Z,-0.50
2018-12-15T09:54:20.375Z,-0.50
2018-12-15T09:56:48.901Z,-0.30
2018-12-15T09:59:17.366Z,-0.40
2018-12-15T10:01:45.963Z,-0.40
2018-12-15T10:04:14.422Z,-0.40
2018-12-15T10:06:42.838Z,-0.40
2018-12-15T10:09:11.210Z,-0.40
2018-12-15T10:11:39.609Z,-0.40
2018-12-15T10:14:08.004Z,-0.30
2018-12-15T10:16:36.735Z,-0.30
2018-12-15T10:19:05.147Z,-0.20
2018-12-15T10:21:33.630Z,-0.10
2018-12-15T10:24:02.267Z,-0.10
2018-12-15T10:26:30.690Z,0.00
2018-12-15T10:28:59.147Z,-0.10
2018-12-15T10:31:32.829Z,0.00
2018-12-15T10:34:01.273Z,0.00
2018-12-15T10:36:30.627Z,0.20
2018-12-15T10:38:58.991Z,0.30
2018-12-15T10:41:27.441Z,0.30
2018-12-15T10:43:55.863Z,-0.20
2018-12-15T10:46:24.312Z,0.00
2018-12-15T10:48:52.821Z,-0.20
2018-12-15T10:51:21.227Z,0.00
2018-12-15T10:53:49.669Z,0.00
2018-12-15T10:56:18.024Z,0.10
2018-12-15T10:58:46.405Z,0.20
2018-12-15T11:01:20.369Z,0.30
2018-12-15T11:03:48.799Z,0.30
2018-12-15T11:06:17.247Z,0.30
2018-12-15T11:08:45.936Z,0.30
2018-12-15T11:11:14.451Z,0.30
2018-12-15T11:13:42.927Z,0.40
2018-12-15T11:16:11.337Z,0.10
2018-12-15T11:18:39.717Z,0.00
2018-12-15T11:21:08.129Z,-0.10
2018-12-15T11:23:36.609Z,-0.10
2018-12-15T11:26:05.167Z,-0.10
2018-12-15T11:28:33.815Z,0.00
2018-12-15T11:31:02.216Z,-0.10
2018-12-15T11:33:30.619Z,-0.10
2018-12-15T11:35:59.096Z,0.00
2018-12-15T11:38:27.561Z,0.10
2018-12-15T11:40:55.954Z,0.00
2018-12-15T11:43:24.339Z,-0.10
2018-12-15T11:45:52.908Z,-0.10
2018-12-15T11:48:21.334Z,-0.40
2018-12-15T11:50:49.731Z,-0.70
2018-12-15T11:53:18.281Z,-0.60
2018-12-15T11:55:46.654Z,-0.30
2018-12-15T11:58:15.374Z,-0.10
2018-12-15T12:00:43.867Z,-0.10
2018-12-15T12:03:12.272Z,-0.20
2018-12-15T12:05:40.812Z,-0.20
2018-12-15T12:08:09.314Z,-0.20
2018-12-15T12:10:37.788Z,-0.20
2018-12-15T12:13:06.264Z,-0.30
2018-12-15T12:15:34.640Z,-0.20
2018-12-15T12:18:03.261Z,-0.10
2018-12-15T12:20:31.712Z,0.00
2018-12-15T12:23:00.193Z,-0.10
2018-12-15T12:25:28.745Z,-0.10
2018-12-15T12:27:57.132Z,0.00
2018-12-15T12:30:25.567Z,0.00
2018-12-15T12:32:54.070Z,0.00
2018-12-15T12:35:22.455Z,0.10
2018-12-15T12:37:50.991Z,0.10
2018-12-15T12:40:19.611Z,0.00
2018-12-15T12:42:48.061Z,0.00
2018-12-15T12:45:16.455Z,0.00
2018-12-15T12:47:44.907Z,0.00
2018-12-15T12:50:13.410Z,-0.10
2018-12-15T12:52:41.867Z,-0.10
2018-12-15T12:55:10.383Z,-0.10
2018-12-15T12:57:38.803Z,-0.10
2018-12-15T13:00:07.497Z,-0.10
2018-12-15T13:02:35.968Z,-0.10
2018-12-15T13:05:05.250Z,-0.20
2018-12-15T13:07:33.686Z,0.40
2018-12-15T13:10:02.162Z,0.60
2018-12-15T13:12:30.644Z,0.50
2018-12-15T13:14:59.081Z,0.20
2018-12-15T13:17:27.466Z,0.10
2018-12-15T13:19:55.897Z,0.00
2018-12-15T13:22:24.285Z,-0.10
2018-12-15T13:24:52.725Z,-0.20
2018-12-15T13:27:21.114Z,-0.10
2018-12-15T13:29:49.633Z,-0.10
2018-12-15T13:32:18.490Z,-0.20
2018-12-15T13:34:46.906Z,-0.20
2018-12-15T13:37:15.295Z,-0.20
2018-12-15T13:39:43.733Z,-0.10
2018-12-15T13:42:12.141Z,-0.20
2018-12-15T13:44:40.536Z,-0.20
2018-12-15T13:47:08.980Z,-0.30
2018-12-15T13:49:37.414Z,-0.20
2018-12-15T13:52:05.860Z,-0.20
2018-12-15T13:54:34.608Z,-0.30
2018-12-15T13:57:03.193Z,-0.30
2018-12-15T13:59:31.793Z,-0.40
2018-12-15T14:02:00.351Z,-0.50
2018-12-15T14:04:28.855Z,-0.50
2018-12-15T14:06:57.415Z,-0.50
2018-12-15T14:09:25.931Z,-0.40
2018-12-15T14:11:55.399Z,-0.40
2018-12-15T14:14:23.858Z,-0.40
2018-12-15T14:16:52.317Z,-0.40
2018-12-15T14:19:20.729Z,-0.40
2018-12-15T14:21:49.221Z,-0.50
2018-12-15T14:24:17.629Z,-0.50
2018-12-15T14:26:46.015Z,-0.50
2018-12-15T14:29:14.471Z,-0.50
2018-12-15T14:31:42.851Z,-0.50
2018-12-15T14:34:11.243Z,-0.70
2018-12-15T14:36:39.763Z,-0.80
2018-12-15T14:39:08.545Z,-0.70
2018-12-15T14:41:37.393Z,-0.80
2018-12-15T14:44:05.949Z,-0.80
2018-12-15T14:46:34.366Z,-0.80
2018-12-15T14:49:02.952Z,-0.70
2018-12-15T14:51:31.377Z,-0.70
2018-12-15T14:53:59.761Z,-0.60
2018-12-15T14:56:28.223Z,-0.70
2018-12-15T14:58:56.586Z,-0.70
2018-12-15T15:01:25.001Z,-0.80
2018-12-15T15:03:53.453Z,-0.80
2018-12-15T15:06:21.877Z,-0.80
2018-12-15T15:08:50.363Z,-0.80
2018-12-15T15:11:18.787Z,-0.80
2018-12-15T15:13:47.246Z,-0.80
2018-12-15T15:16:15.897Z,-0.70
2018-12-15T15:18:44.334Z,-0.70
2018-12-15T15:21:12.778Z,-0.70
2018-12-15T15:23:41.206Z,-0.80
2018-12-15T15:26:09.755Z,-0.70
2018-12-15T15:28:38.327Z,-0.50
2018-12-15T15:31:06.775Z,-0.40
2018-12-15T15:33:35.377Z,-0.60
2018-12-15T15:36:03.895Z,-0.60
2018-12-15T15:38:32.302Z,-0.70
2018-12-15T15:41:00.727Z,-0.70
2018-12-15T15:43:29.451Z,-0.70
2018-12-15T15:45:57.960Z,-0.70
2018-12-15T15:48:26.507Z,-0.70
2018-12-15T15:50:54.982Z,-0.80
2018-12-15T15:53:23.428Z,-0.80
2018-12-15T15:55:51.837Z,-0.80
2018-12-15T15:58:20.341Z,-0.90
2018-12-15T16:00:48.737Z,-1.00
2018-12-15T16:03:17.447Z,-1.00
2018-12-15T16:05:45.885Z,-0.90
2018-12-15T16:08:14.432Z,-0.90
2018-12-15T16:10:42.911Z,-1.00
2018-12-15T16:13:11.347Z,-1.00
2018-12-15T16:15:39.771Z,-0.90
2018-12-15T16:18:08.268Z,-0.90
2018-12-15T16:20:43.000Z,-1.00
2018-12-15T16:23:07.099Z,-1.00
2018-12-15T16:25:35.534Z,-1.00
2018-12-15T16:28:03.937Z,-1.00
2018-12-15T16:30:32.431Z,-1.00
2018-12-15T16:33:00.819Z,-1.00
2018-12-15T16:35:29.208Z,-1.20
2018-12-15T16:37:57.705Z,-1.20
2018-12-15T16:40:26.117Z,-1.20
2018-12-15T16:42:54.539Z,-1.10
2018-12-15T16:45:23.029Z,-1.20
2018-12-15T16:47:51.465Z,-1.20
2018-12-15T16:50:20.003Z,-1.20
2018-12-15T16:52:48.787Z,-1.20
2018-12-15T16:55:17.666Z,-1.20
2018-12-15T16:57:46.087Z,-1.20
2018-12-15T17:00:14.903Z,-1.10
2018-12-15T17:02:43.334Z,-1.10
2018-12-15T17:05:11.781Z,-1.10
2018-12-15T17:07:40.176Z,-1.10
2018-12-15T17:10:09.243Z,-1.20
2018-12-15T17:12:37.635Z,-1.20
2018-12-15T17:15:07.891Z,-1.20
2018-12-15T17:17:36.311Z,-1.20
2018-12-15T17:20:05.448Z,-1.10
2018-12-15T17:22:33.940Z,-1.10
2018-12-15T17:25:02.414Z,-1.20
2018-12-15T17:27:31.475Z,-1.20
2018-12-15T17:29:59.944Z,-1.20
2018-12-15T17:32:28.436Z,-1.20
2018-12-15T17:34:56.872Z,-1.20
2018-12-15T17:37:25.269Z,-1.20
2018-12-15T17:39:53.647Z,-1.20
2018-12-15T17:42:22.031Z,-1.20
2018-12-15T17:44:50.554Z,-1.30
2018-12-15T17:47:18.982Z,-1.20
2018-12-15T17:49:47.416Z,-1.20
2018-12-15T17:52:15.814Z,-1.20
2018-12-15T17:54:44.262Z,-1.10
2018-12-15T17:57:12.718Z,-1.10
2018-12-15T17:59:41.170Z,-1.10
2018-12-15T18:02:09.567Z,-1.10
2018-12-15T18:04:37.981Z,-1.10
2018-12-15T18:07:06.374Z,-1.20
2018-12-15T18:09:34.811Z,-1.20
2018-12-15T18:12:03.291Z,-1.20
2018-12-15T18:14:31.798Z,-1.20
2018-12-15T18:17:00.346Z,-1.20
2018-12-15T18:19:29.089Z,-1.20
2018-12-15T18:21:57.493Z,-1.10
2018-12-15T18:24:26.062Z,-1.20
2018-12-15T18:26:54.465Z,-1.30
2018-12-15T18:29:22.875Z,-1.30
2018-12-15T18:31:51.429Z,-1.20
2018-12-15T18:34:19.860Z,-1.20
2018-12-15T18:36:48.301Z,-1.20
2018-12-15T18:39:16.781Z,-1.30
2018-12-15T18:41:45.331Z,-1.20
2018-12-15T18:44:13.929Z,-1.20
2018-12-15T18:46:42.343Z,-1.30
2018-12-15T18:49:10.864Z,-1.20
2018-12-15T18:51:39.325Z,-1.30
2018-12-15T18:54:07.976Z,-1.30
2018-12-15T18:56:36.600Z,-1.30
2018-12-15T18:59:05.463Z,-1.30
2018-12-15T19:01:33.919Z,-1.30
2018-12-15T19:04:02.316Z,-1.20
2018-12-15T19:06:30.708Z,-1.30
2018-12-15T19:09:04.039Z,-1.30
2018-12-15T19:11:29.555Z,-1.40
2018-12-15T19:13:57.919Z,-1.40
2018-12-15T19:16:26.398Z,-1.40
2018-12-15T19:18:54.883Z,-1.40
2018-12-15T19:21:23.274Z,-1.50
2018-12-15T19:23:51.763Z,-1.50
2018-12-15T19:26:20.169Z,-1.50
2018-12-15T19:28:48.632Z,-1.40
2018-12-15T19:31:17.018Z,-1.40
2018-12-15T19:33:45.551Z,-1.50
2018-12-15T19:36:13.958Z,-1.50
2018-12-15T19:38:42.500Z,-1.50
2018-12-15T19:41:10.932Z,-1.60
2018-12-15T19:43:39.382Z,-1.60
2018-12-15T19:46:07.832Z,-1.60
2018-12-15T19:48:36.245Z,-1.50
2018-12-15T19:51:04.703Z,-1.50
2018-12-15T19:53:33.069Z,-1.50
2018-12-15T19:56:01.497Z,-1.50
2018-12-15T19:58:30.028Z,-1.50
2018-12-15T20:00:58.482Z,-1.60
2018-12-15T20:03:26.893Z,-1.50
2018-12-15T20:05:55.364Z,-1.50
2018-12-15T20:08:23.827Z,-1.50
2018-12-15T20:10:52.315Z,-1.50
2018-12-15T20:13:20.815Z,-1.70
2018-12-15T20:15:49.259Z,-1.70
2018-12-15T20:18:17.795Z,-1.60
2018-12-15T20:20:46.150Z,-1.60
2018-12-15T20:23:14.542Z,-1.70
2018-12-15T20:25:42.957Z,-1.60
2018-12-15T20:28:11.377Z,-1.60
2018-12-15T20:30:39.810Z,-1.60
2018-12-15T20:33:08.272Z,-1.60
2018-12-15T20:35:36.800Z,-1.60
2018-12-15T20:38:05.273Z,-1.70
2018-12-15T20:40:33.674Z,-1.60
2018-12-15T20:43:02.099Z,-1.60
2018-12-15T20:45:30.563Z,-1.60
2018-12-15T20:47:59.111Z,-1.70
2018-12-15T20:50:27.499Z,-1.70
2018-12-15T20:52:56.072Z,-1.70
2018-12-15T20:55:24.471Z,-1.70
2018-12-15T20:57:52.901Z,-1.70
2018-12-15T21:00:21.465Z,-1.70
2018-12-15T21:02:49.884Z,-1.70
2018-12-15T21:05:18.337Z,-1.70
2018-12-15T21:07:46.727Z,-1.70
2018-12-15T21:10:15.219Z,-1.70
2018-12-15T21:12:43.701Z,-1.70
2018-12-15T21:15:17.699Z,-1.70
2018-12-15T21:17:46.227Z,-1.70
2018-12-15T21:20:14.805Z,-1.70
2018-12-15T21:22:43.440Z,-1.70
2018-12-15T21:25:11.937Z,-1.70
2018-12-15T21:27:40.359Z,-1.80
2018-12-15T21:30:10.343Z,-1.90
2018-12-15T21:32:39.193Z,-2.00
2018-12-15T21:35:08.018Z,-2.10
2018-12-15T21:37:36.461Z,-2.10
2018-12-15T21:40:05.513Z,-2.20
2018-12-15T21:42:33.916Z,-2.20
2018-12-15T21:45:02.381Z,-2.30
2018-12-15T21:47:30.787Z,-2.30
2018-12-15T21:49:59.260Z,-2.30
2018-12-15T21:52:27.711Z,-2.30
2018-12-15T21:54:56.136Z,-2.30
2018-12-15T21:57:24.536Z,-2.40
2018-12-15T21:59:53.017Z,-2.40
2018-12-15T22:02:21.435Z,-2.50
2018-12-15T22:04:50.113Z,-2.50
2018-12-15T22:07:18.694Z,-2.50
2018-12-15T22:09:47.208Z,-2.60
2018-12-15T22:12:15.622Z,-2.70
2018-12-15T22:14:44.069Z,-2.70
2018-12-15T22:17:12.551Z,-2.70
2018-12-15T22:19:41.003Z,-2.70
2018-12-15T22:22:09.425Z,-2.70
2018-12-15T22:24:37.894Z,-2.80
2018-12-15T22:27:06.364Z,-2.80
2018-12-15T22:29:34.829Z,-2.90
2018-12-15T22:32:03.231Z,-2.90
2018-12-15T22:34:31.618Z,-3.00
2018-12-15T22:37:00.040Z,-3.00
2018-12-15T22:39:28.519Z,-3.10
2018-12-15T22:41:56.943Z,-3.10
2018-12-15T22:44:25.381Z,-3.10
2018-12-15T22:46:53.835Z,-3.10
2018-12-15T22:49:22.491Z,-3.10
2018-12-15T22:51:50.931Z,-3.20
2018-12-15T22:54:19.315Z,-3.10
2018-12-15T22:56:47.830Z,-3.20
2018-12-15T22:59:16.358Z,-3.20
2018-12-15T23:01:45.714Z,-3.20
2018-12-15T23:04:15.323Z,-3.20
2018-12-15T23:06:43.984Z,-3.20
2018-12-15T23:09:12.465Z,-3.20
2018-12-15T23:11:41.098Z,-3.20
2018-12-15T23:14:09.553Z,-3.20
2018-12-15T23:16:37.910Z,-3.30
2018-12-15T23:19:06.270Z,-3.40
2018-12-15T23:21:34.702Z,-3.40
2018-12-15T23:24:03.094Z,-3.40
2018-12-15T23:26:31.550Z,-3.40
2018-12-15T23:28:59.932Z,-3.40
2018-12-15T23:31:28.685Z,-3.50
2018-12-15T23:33:57.304Z,-3.50
2018-12-15T23:36:26.178Z,-3.50
2018-12-15T23:38:54.772Z,-3.50
2018-12-15T23:41:23.176Z,-3.50
2018-12-15T23:43:51.646Z,-3.50
2018-12-15T23:46:20.294Z,-3.50
2018-12-15T23:48:48.823Z,-3.50
2018-12-15T23:51:17.544Z,-3.60
2018-12-15T23:53:46.051Z,-3.60
2018-12-15T23:56:14.438Z,-3.60
2018-12-15T23:58:42.872Z,-3.60
